createdAt,value
2022-12-20T00:01:55.113Z,98454.13
2022-12-20T00:04:25.182Z,98450.59
2022-12-20T00:06:53.429Z,98445.38
2022-12-20T00:09:21.735Z,98441.88
2022-12-20T00:11:50.156Z,98438.31
2022-12-20T00:14:18.679Z,98442.69
2022-12-20T00:16:46.912Z,98436.63
2022-12-20T00:19:15.224Z,98439.09
2022-12-20T00:21:44.820Z,98456.41
2022-12-20T00:24:13.066Z,98457.19
2022-12-20T00:26:41.401Z,98453.63
2022-12-20T00:29:10.046Z,98438.03
2022-12-20T00:31:39.987Z,98448.34
2022-12-20T00:34:08.241Z,98442.19
2022-12-20T00:36:36.644Z,98445.66
2022-12-20T00:39:06.725Z,98436.13
2022-12-20T00:41:36.207Z,98448.25
2022-12-20T00:44:05.713Z,98453.50
2022-12-20T00:46:35.661Z,98440.41
2022-12-20T00:49:04.022Z,98439.56
2022-12-20T00:51:33.779Z,98437.81
2022-12-20T00:54:02.298Z,98430.97
2022-12-20T00:56:31.922Z,98429.25
2022-12-20T00:59:00.819Z,98430.13
2022-12-20T01:01:32.586Z,98420.59
2022-12-20T01:04:01.455Z,98417.19
2022-12-20T01:06:31.015Z,98413.72
2022-12-20T01:09:00.365Z,98417.28
2022-12-20T01:11:32.441Z,98424.31
2022-12-20T01:14:03.520Z,98413.06
2022-12-20T01:16:35.655Z,98410.44
2022-12-20T01:19:04.444Z,98415.72
2022-12-20T01:21:33.014Z,98416.56
2022-12-20T01:24:01.314Z,98414.88
2022-12-20T01:26:32.027Z,98412.25
2022-12-20T01:29:01.751Z,98421.03
2022-12-20T01:31:31.520Z,98434.09
2022-12-20T01:34:01.325Z,98441.00
2022-12-20T01:36:32.930Z,98427.16
2022-12-20T01:39:04.292Z,98436.78
2022-12-20T01:41:35.294Z,98442.00
2022-12-20T01:44:06.100Z,98437.69
2022-12-20T01:46:37.197Z,98424.75
2022-12-20T01:49:11.849Z,98422.16
2022-12-20T01:51:45.724Z,98427.44
2022-12-20T01:54:18.118Z,98429.31
2022-12-20T01:56:53.751Z,98439.81
2022-12-20T01:59:22.185Z,98445.06
2022-12-20T02:01:51.478Z,98438.03
2022-12-20T02:04:20.076Z,98428.53
2022-12-20T02:06:48.308Z,98426.91
2022-12-20T02:09:17.765Z,98425.19
2022-12-20T02:12:09.163Z,98428.81
2022-12-20T02:14:55.925Z,98428.06
2022-12-20T02:17:40.407Z,98418.56
2022-12-20T02:20:56.568Z,98416.97
2022-12-20T02:24:23.147Z,98415.41
2022-12-20T02:27:33.432Z,98411.25
2022-12-20T02:30:11.439Z,98407.88
2022-12-20T02:32:47.946Z,98395.72
2022-12-20T02:35:23.752Z,98405.19
2022-12-20T02:37:54.825Z,98388.59
2022-12-20T02:40:27.662Z,98390.19
2022-12-20T02:43:01.026Z,98372.91
2022-12-20T02:45:35.162Z,98390.19
2022-12-20T02:48:08.371Z,98391.06
2022-12-20T02:50:40.211Z,98397.97
2022-12-20T02:53:10.635Z,98400.50
2022-12-20T02:55:47.917Z,98397.81
2022-12-20T02:58:29.387Z,98396.06
2022-12-20T03:01:04.522Z,98390.84
2022-12-20T03:03:34.195Z,98382.06
2022-12-20T03:06:03.087Z,98378.66
2022-12-20T03:08:31.768Z,98364.81
2022-12-20T03:11:00.247Z,98369.09
2022-12-20T03:13:28.563Z,98376.03
2022-12-20T03:15:58.264Z,98369.88
2022-12-20T03:18:26.547Z,98369.03
2022-12-20T03:20:55.755Z,98370.66
2022-12-20T03:23:23.991Z,98370.59
2022-12-20T03:25:52.326Z,98368.81
2022-12-20T03:28:20.667Z,98368.72
2022-12-20T03:30:49.313Z,98370.41
2022-12-20T03:33:18.966Z,98372.13
2022-12-20T03:35:49.206Z,98367.66
2022-12-20T03:38:17.514Z,98365.91
2022-12-20T03:40:45.860Z,98361.44
2022-12-20T03:43:14.434Z,98377.06
2022-12-20T03:45:42.743Z,98372.59
2022-12-20T03:48:11.039Z,98362.13
2022-12-20T03:50:40.777Z,98371.69
2022-12-20T03:53:09.155Z,98369.91
2022-12-20T03:55:37.626Z,98376.06
2022-12-20T03:58:05.944Z,98377.81
2022-12-20T04:00:34.704Z,98364.81
2022-12-20T04:03:03.037Z,98352.69
2022-12-20T04:05:31.425Z,98342.31
2022-12-20T04:08:01.126Z,98335.41
2022-12-20T04:10:29.388Z,98330.19
2022-12-20T04:12:57.659Z,98342.47
2022-12-20T04:15:25.994Z,98343.38
2022-12-20T04:17:54.280Z,98339.84
2022-12-20T04:20:22.556Z,98337.16
2022-12-20T04:22:53.154Z,98327.56
2022-12-20T04:25:23.168Z,98326.63
2022-12-20T04:27:51.447Z,98322.19
2022-12-20T04:30:20.046Z,98325.63
2022-12-20T04:32:48.274Z,98322.13
2022-12-20T04:35:16.670Z,98324.66
2022-12-20T04:37:44.933Z,98348.09
2022-12-20T04:40:14.519Z,98348.09
2022-12-20T04:42:44.107Z,98350.72
2022-12-20T04:45:13.068Z,98345.56
2022-12-20T04:47:41.314Z,98350.72
2022-12-20T04:50:10.645Z,98356.75
2022-12-20T04:52:56.340Z,98351.53
2022-12-20T04:55:25.518Z,98341.16
2022-12-20T04:57:55.091Z,98351.59
2022-12-20T05:00:23.523Z,98337.66
2022-12-20T05:02:52.278Z,98341.16
2022-12-20T05:05:20.711Z,98364.66
2022-12-20T05:07:49.016Z,98357.84
2022-12-20T05:10:17.399Z,98349.06
2022-12-20T05:12:45.795Z,98337.78
2022-12-20T05:15:15.462Z,98342.16
2022-12-20T05:17:43.735Z,98350.06
2022-12-20T05:20:13.772Z,98349.13
2022-12-20T05:22:59.304Z,98336.06
2022-12-20T05:25:44.740Z,98330.09
2022-12-20T05:28:12.993Z,98330.19
2022-12-20T05:30:42.587Z,98325.09
2022-12-20T05:33:12.750Z,98314.81
2022-12-20T05:35:41.801Z,98308.72
2022-12-20T05:38:10.093Z,98300.97
2022-12-20T05:40:38.556Z,98291.53
2022-12-20T05:43:07.315Z,98296.75
2022-12-20T05:45:36.174Z,98294.22
2022-12-20T05:48:06.086Z,98298.56
2022-12-20T05:50:34.331Z,98284.75
2022-12-20T05:53:06.044Z,98287.44
2022-12-20T05:55:40.492Z,98295.34
2022-12-20T05:58:08.993Z,98305.03
2022-12-20T06:00:37.441Z,98315.53
2022-12-20T06:03:07.212Z,98315.53
2022-12-20T06:05:35.516Z,98311.31
2022-12-20T06:08:03.879Z,98310.47
2022-12-20T06:10:32.535Z,98296.56
2022-12-20T06:13:01.029Z,98300.94
2022-12-20T06:15:29.397Z,98306.19
2022-12-20T06:17:58.092Z,98289.72
2022-12-20T06:20:27.855Z,98283.66
2022-12-20T06:22:56.104Z,98289.78
2022-12-20T06:25:24.350Z,98274.13
2022-12-20T06:27:52.644Z,98269.75
2022-12-20T06:30:21.289Z,98279.34
2022-12-20T06:32:49.750Z,98271.53
2022-12-20T06:35:18.165Z,98280.13
2022-12-20T06:37:47.813Z,98280.06
2022-12-20T06:40:16.495Z,98276.53
2022-12-20T06:42:44.985Z,98271.28
2022-12-20T06:45:13.458Z,98276.44
2022-12-20T06:47:41.672Z,98275.50
2022-12-20T06:50:10.381Z,98278.91
2022-12-20T06:52:38.621Z,98276.22
2022-12-20T06:55:09.839Z,98267.47
2022-12-20T06:57:38.142Z,98275.22
2022-12-20T07:00:11.123Z,98271.63
2022-12-20T07:02:39.578Z,98270.69
2022-12-20T07:05:08.851Z,98278.53
2022-12-20T07:07:44.404Z,98280.22
2022-12-20T07:10:14.988Z,98284.47
2022-12-20T07:12:47.781Z,98295.59
2022-12-20T07:15:17.654Z,98308.56
2022-12-20T07:17:46.546Z,98306.75
2022-12-20T07:20:15.157Z,98303.13
2022-12-20T07:22:43.667Z,98303.13
2022-12-20T07:25:12.189Z,98306.59
2022-12-20T07:27:41.783Z,98300.44
2022-12-20T07:30:11.000Z,98306.53
2022-12-20T07:32:39.254Z,98309.97
2022-12-20T07:35:08.897Z,98305.50
2022-12-20T07:37:37.164Z,98307.13
2022-12-20T07:40:07.592Z,98311.44
2022-12-20T07:42:39.117Z,98302.59
2022-12-20T07:45:12.002Z,98295.63
2022-12-20T07:47:40.237Z,98286.78
2022-12-20T07:50:10.463Z,98281.47
2022-12-20T07:52:39.543Z,98278.78
2022-12-20T07:55:10.352Z,98280.47
2022-12-20T07:57:44.627Z,98272.63
2022-12-20T08:00:18.733Z,98265.56
2022-12-20T08:02:55.037Z,98267.16
2022-12-20T08:05:24.698Z,98268.00
2022-12-20T08:07:58.936Z,98274.84
2022-12-20T08:10:28.720Z,98262.63
2022-12-20T08:12:57.535Z,98263.34
2022-12-20T08:15:27.517Z,98262.25
2022-12-20T08:17:55.745Z,98243.78
2022-12-20T08:20:24.109Z,98248.78
2022-12-20T08:22:52.359Z,98253.00
2022-12-20T08:25:21.558Z,98254.53
2022-12-20T08:27:49.967Z,98243.97
2022-12-20T08:30:18.860Z,98242.91
2022-12-20T08:32:48.569Z,98246.19
2022-12-20T08:35:16.932Z,98242.75
2022-12-20T08:37:45.209Z,98248.50
2022-12-20T08:40:14.724Z,98257.88
2022-12-20T08:42:43.009Z,98265.56
2022-12-20T08:45:12.416Z,98267.09
2022-12-20T08:47:40.981Z,98261.78
2022-12-20T08:50:11.815Z,98265.19
2022-12-20T08:52:40.251Z,98269.38
2022-12-20T08:55:12.771Z,98268.38
2022-12-20T08:57:41.433Z,98279.53
2022-12-20T09:00:12.006Z,98295.97
2022-12-20T09:02:41.377Z,98281.97
2022-12-20T09:05:11.783Z,98273.03
2022-12-20T09:07:39.999Z,98279.94
2022-12-20T09:10:10.432Z,98271.13
2022-12-20T09:12:39.425Z,98267.56
2022-12-20T09:15:09.653Z,98264.78
2022-12-20T09:17:37.863Z,98268.16
2022-12-20T09:20:07.940Z,98268.09
2022-12-20T09:22:37.529Z,98257.53
2022-12-20T09:25:07.466Z,98250.34
2022-12-20T09:27:35.736Z,98248.41
2022-12-20T09:30:04.019Z,98250.88
2022-12-20T09:32:32.278Z,98237.63
2022-12-20T09:35:00.517Z,98243.47
2022-12-20T09:37:32.281Z,98233.72
2022-12-20T09:40:01.977Z,98236.09
2022-12-20T09:42:31.390Z,98235.84
2022-12-20T09:45:06.397Z,98224.16
2022-12-20T09:47:37.202Z,98216.06
2022-12-20T09:50:07.832Z,98213.25
2022-12-20T09:52:59.125Z,98208.72
2022-12-20T09:55:36.546Z,98209.41
2022-12-20T09:58:28.794Z,98202.97
2022-12-20T10:00:57.979Z,98205.44
2022-12-20T10:03:32.901Z,98202.47
2022-12-20T10:06:10.532Z,98199.56
2022-12-20T10:08:52.033Z,98206.13
2022-12-20T10:11:59.406Z,98204.94
2022-12-20T10:14:52.660Z,98196.88
2022-12-20T10:17:34.090Z,98196.25
2022-12-20T10:20:23.440Z,98181.97
2022-12-20T10:22:58.806Z,98171.88
2022-12-20T10:25:32.754Z,98170.59
2022-12-20T10:28:10.841Z,98161.41
2022-12-20T10:30:39.115Z,98155.69
2022-12-20T10:33:07.376Z,98156.91
2022-12-20T10:35:40.979Z,98145.94
2022-12-20T10:38:12.762Z,98145.47
2022-12-20T10:41:19.520Z,98144.34
2022-12-20T10:43:43.905Z,98147.16
2022-12-20T10:46:13.411Z,98155.38
2022-12-20T10:48:44.502Z,98168.88
2022-12-20T10:51:19.323Z,98164.09
2022-12-20T10:54:01.253Z,98166.22
2022-12-20T10:56:32.524Z,98153.63
2022-12-20T10:59:06.642Z,98148.75
2022-12-20T11:01:37.953Z,98142.16
2022-12-20T11:04:08.734Z,98147.84
2022-12-20T11:06:47.115Z,98145.75
2022-12-20T11:09:31.725Z,98145.25
2022-12-20T11:12:07.543Z,98140.56
2022-12-20T11:14:40.059Z,98130.59
2022-12-20T11:17:32.809Z,98131.03
2022-12-20T11:20:32.048Z,98120.00
2022-12-20T11:23:17.182Z,98115.19
2022-12-20T11:26:05.924Z,98112.97
2022-12-20T11:28:55.995Z,98109.13
2022-12-20T11:31:42.785Z,98099.31
2022-12-20T11:34:31.415Z,98074.63
2022-12-20T11:37:20.746Z,98072.00
2022-12-20T11:40:20.382Z,98061.50
2022-12-20T11:43:06.172Z,98057.06
2022-12-20T11:45:50.765Z,98048.56
2022-12-20T11:48:47.180Z,98058.13
2022-12-20T11:51:26.975Z,98047.59
2022-12-20T11:54:02.507Z,98056.34
2022-12-20T11:56:43.536Z,98046.66
2022-12-20T11:59:22.138Z,98034.34
2022-12-20T12:02:01.622Z,98041.28
2022-12-20T12:04:36.540Z,98031.72
2022-12-20T12:07:11.777Z,98032.56
2022-12-20T12:09:50.923Z,98025.63
2022-12-20T12:12:26.450Z,98020.34
2022-12-20T12:15:01.751Z,98018.47
2022-12-20T12:17:39.544Z,98015.63
2022-12-20T12:20:25.672Z,98010.47
2022-12-20T12:23:00.310Z,97995.66
2022-12-20T12:25:28.924Z,98019.13
2022-12-20T12:27:57.276Z,98020.88
2022-12-20T12:30:25.882Z,98037.44
2022-12-20T12:32:57.110Z,98049.63
2022-12-20T12:36:25.223Z,98031.22
2022-12-20T12:39:51.016Z,97990.53
2022-12-20T12:42:56.630Z,97998.50
2022-12-20T12:45:29.489Z,97987.16
2022-12-20T12:48:04.091Z,97988.00
2022-12-20T12:50:37.849Z,97988.72
2022-12-20T12:53:13.040Z,97974.63
2022-12-20T12:55:45.527Z,97967.56
2022-12-20T12:58:35.625Z,97968.44
2022-12-20T13:01:09.580Z,97974.53
2022-12-20T13:03:46.734Z,97961.28
2022-12-20T13:06:58.806Z,97959.56
2022-12-20T13:09:43.511Z,97957.06
2022-12-20T13:12:59.007Z,97959.78
2022-12-20T13:16:10.623Z,97960.97
2022-12-20T13:18:39.317Z,97956.56
2022-12-20T13:21:39.366Z,97954.75
2022-12-20T13:24:58.625Z,97966.00
2022-12-20T13:27:31.380Z,97956.25
2022-12-20T13:30:30.618Z,97961.50
2022-12-20T13:33:19.786Z,97956.03
2022-12-20T13:36:32.819Z,97963.84
2022-12-20T13:39:03.355Z,97968.88
2022-12-20T13:41:49.770Z,97971.41
2022-12-20T13:44:36.544Z,97966.16
2022-12-20T13:47:18.535Z,97964.53
2022-12-20T13:49:47.434Z,97969.69
2022-12-20T13:52:29.167Z,97976.88
2022-12-20T13:55:00.685Z,97986.22
2022-12-20T13:57:34.472Z,97982.75
2022-12-20T14:00:08.930Z,97980.75
2022-12-20T14:02:43.625Z,97960.66
2022-12-20T14:05:21.168Z,97956.22
2022-12-20T14:07:57.793Z,97953.59
2022-12-20T14:10:28.917Z,97954.56
2022-12-20T14:12:58.818Z,97950.38
2022-12-20T14:15:31.477Z,97935.81
2022-12-20T14:18:07.849Z,97932.38
2022-12-20T14:20:38.098Z,97927.31
2022-12-20T14:23:11.407Z,97926.59
2022-12-20T14:25:45.011Z,97918.91
2022-12-20T14:28:31.110Z,97936.47
2022-12-20T14:31:01.967Z,97939.19
2022-12-20T14:33:37.789Z,97935.97
2022-12-20T14:36:12.530Z,97937.75
2022-12-20T14:38:42.775Z,97931.63
2022-12-20T14:41:32.518Z,97927.44
2022-12-20T14:44:12.953Z,97926.38
2022-12-20T14:46:48.551Z,97943.09
2022-12-20T14:49:26.075Z,97936.19
2022-12-20T14:52:12.766Z,97936.19
2022-12-20T14:57:44.299Z,97941.53
2022-12-20T15:00:22.873Z,97945.94
2022-12-20T15:03:00.825Z,97931.13
2022-12-20T15:05:49.691Z,97914.63
2022-12-20T15:08:22.179Z,97919.97
2022-12-20T15:10:55.797Z,97902.44
2022-12-20T15:13:30.570Z,97892.16
2022-12-20T15:16:04.668Z,97879.22
2022-12-20T15:18:33.940Z,97873.13
2022-12-20T15:21:06.943Z,97870.91
2022-12-20T15:23:36.106Z,97853.47
2022-12-20T15:26:04.610Z,97842.34
2022-12-20T15:28:33.446Z,97841.75
2022-12-20T15:31:05.130Z,97833.97
2022-12-20T15:33:36.421Z,97831.56
2022-12-20T15:36:04.889Z,97837.72
2022-12-20T15:41:25.373Z,97871.38
2022-12-20T15:43:57.637Z,97874.00
2022-12-20T15:46:27.652Z,97881.88
2022-12-20T15:48:56.557Z,97877.56
2022-12-20T15:51:30.083Z,97873.16
2022-12-20T15:53:59.130Z,97888.81
2022-12-20T15:56:29.084Z,97893.09
2022-12-20T15:58:57.840Z,97896.69
2022-12-20T16:01:40.021Z,97911.59
2022-12-20T16:04:15.256Z,97911.59
2022-12-20T16:06:44.595Z,97909.81
2022-12-20T16:09:13.613Z,97904.56
2022-12-20T16:11:42.524Z,97901.94
2022-12-20T16:14:17.476Z,97893.31
2022-12-20T16:16:48.717Z,97875.88
2022-12-20T16:19:17.369Z,97876.84
2022-12-20T16:21:49.213Z,97880.50
2022-12-20T16:24:21.400Z,97865.81
2022-12-20T16:26:50.390Z,97875.34
2022-12-20T16:31:49.515Z,97895.31
2022-12-20T16:34:19.917Z,97885.25
2022-12-20T16:36:48.522Z,97892.50
2022-12-20T16:39:16.767Z,97896.91
2022-12-20T16:41:45.313Z,97886.59
2022-12-20T16:44:16.200Z,97888.50
2022-12-20T16:46:45.644Z,97899.09
2022-12-20T16:49:20.511Z,97913.16
2022-12-20T16:51:50.887Z,97904.56
2022-12-20T16:54:22.472Z,97895.00
2022-12-20T16:56:55.498Z,97882.94
2022-12-20T16:59:24.334Z,97885.56
2022-12-20T17:01:55.835Z,97892.47
2022-12-20T17:04:26.724Z,97890.81
2022-12-20T17:06:55.300Z,97890.81
2022-12-20T17:12:16.524Z,97892.78
2022-12-20T17:14:45.051Z,97891.72
2022-12-20T17:17:13.688Z,97889.31
2022-12-20T17:19:43.908Z,97876.84
2022-12-20T17:25:00.383Z,97881.22
2022-12-20T17:27:28.677Z,97874.22
2022-12-20T17:29:57.000Z,97876.94
2022-12-20T17:32:26.543Z,97880.22
2022-12-20T17:34:56.444Z,97876.63
2022-12-20T17:37:25.025Z,97873.06
2022-12-20T17:39:53.283Z,97856.47
2022-12-20T17:42:27.071Z,97854.78
2022-12-20T17:44:59.082Z,97861.09
2022-12-20T17:47:27.374Z,97849.94
2022-12-20T17:49:57.069Z,97847.44
2022-12-20T17:52:26.557Z,97840.63
2022-12-20T17:54:54.904Z,97837.25
2022-12-20T17:57:23.254Z,97835.69
2022-12-20T17:59:51.561Z,97839.25
2022-12-20T18:02:27.385Z,97839.47
2022-12-20T18:04:57.185Z,97844.91
2022-12-20T18:07:25.481Z,97843.22
2022-12-20T18:09:53.801Z,97837.97
2022-12-20T18:12:22.089Z,97829.28
2022-12-20T18:14:50.822Z,97842.41
2022-12-20T18:17:19.298Z,97851.19
2022-12-20T18:19:47.606Z,97852.03
2022-12-20T18:22:17.276Z,97848.47
2022-12-20T18:24:45.535Z,97838.91
2022-12-20T18:27:13.959Z,97839.78
2022-12-20T18:29:42.322Z,97829.38
2022-12-20T18:32:10.710Z,97838.06
2022-12-20T18:34:39.146Z,97827.69
2022-12-20T18:37:07.459Z,97840.78
2022-12-20T18:39:37.419Z,97838.28
2022-12-20T18:42:05.982Z,97847.00
2022-12-20T18:44:35.962Z,97845.31
2022-12-20T18:47:04.999Z,97831.47
2022-12-20T18:49:33.242Z,97841.25
2022-12-20T18:52:01.484Z,97823.91
2022-12-20T18:54:30.907Z,97830.19
2022-12-20T18:57:00.554Z,97825.16
2022-12-20T18:59:28.884Z,97812.25
2022-12-20T19:01:57.243Z,97813.91
2022-12-20T19:04:25.627Z,97823.50
2022-12-20T19:06:53.916Z,97813.09
2022-12-20T19:09:22.559Z,97821.88
2022-12-20T19:11:56.626Z,97816.66
2022-12-20T19:14:27.368Z,97808.88
2022-12-20T19:16:55.817Z,97810.59
2022-12-20T19:19:24.100Z,97813.09
2022-12-20T19:21:52.379Z,97811.31
2022-12-20T19:24:21.378Z,97798.19
2022-12-20T19:26:49.703Z,97799.88
2022-12-20T19:29:18.217Z,97792.13
2022-12-20T19:31:48.006Z,97798.09
2022-12-20T19:34:16.434Z,97794.53
2022-12-20T19:36:47.136Z,97786.66
2022-12-20T19:39:20.014Z,97796.22
2022-12-20T19:42:15.646Z,97811.94
2022-12-20T19:44:37.117Z,97827.78
2022-12-20T19:47:07.105Z,97800.81
2022-12-20T19:49:36.697Z,97810.47
2022-12-20T19:52:05.819Z,97816.66
2022-12-20T19:54:34.172Z,97808.88
2022-12-20T19:57:02.605Z,97798.50
2022-12-20T19:59:31.419Z,97808.16
2022-12-20T20:01:59.774Z,97815.28
2022-12-20T20:04:29.947Z,97797.13
2022-12-20T20:06:58.373Z,97801.41
2022-12-20T20:09:26.675Z,97803.13
2022-12-20T20:11:54.986Z,97806.06
2022-12-20T20:14:23.773Z,97803.94
2022-12-20T20:16:52.058Z,97812.56
2022-12-20T20:19:20.770Z,97816.84
2022-12-20T20:21:50.515Z,97801.13
2022-12-20T20:24:18.900Z,97796.72
2022-12-20T20:26:47.215Z,97786.22
2022-12-20T20:29:15.513Z,97785.28
2022-12-20T20:31:43.900Z,97786.13
2022-12-20T20:34:12.465Z,97782.66
2022-12-20T20:36:40.760Z,97787.78
2022-12-20T20:39:10.535Z,97774.78
2022-12-20T20:41:38.823Z,97772.16
2022-12-20T20:44:07.264Z,97770.59
2022-12-20T20:46:35.637Z,97767.22
2022-12-20T20:49:03.969Z,97757.69
2022-12-20T20:51:32.303Z,97769.13
2022-12-20T20:54:00.620Z,97757.78
2022-12-20T20:56:30.372Z,97765.75
2022-12-20T20:59:04.572Z,97756.22
2022-12-20T21:01:33.696Z,97750.97
2022-12-20T21:04:02.195Z,97732.63
2022-12-20T21:06:40.040Z,97738.78
2022-12-20T21:09:09.286Z,97745.84
2022-12-20T21:11:39.106Z,97748.56
2022-12-20T21:14:07.688Z,97751.19
2022-12-20T21:16:36.722Z,97742.47
2022-12-20T21:19:05.756Z,97721.59
2022-12-20T21:21:34.038Z,97718.97
2022-12-20T21:24:02.326Z,97714.78
2022-12-20T21:26:30.647Z,97715.72
2022-12-20T21:29:01.062Z,97717.72
2022-12-20T21:31:29.689Z,97709.84
2022-12-20T21:33:58.700Z,97709.97
2022-12-20T21:36:27.160Z,97713.41
2022-12-20T21:38:58.396Z,97732.72
2022-12-20T21:41:29.092Z,97744.16
2022-12-20T21:44:00.390Z,97724.84
2022-12-20T21:46:31.921Z,97710.88
2022-12-20T21:49:00.812Z,97710.78
2022-12-20T21:51:30.592Z,97706.50
2022-12-20T21:54:01.345Z,97705.63
2022-12-20T21:56:31.998Z,97697.78
2022-12-20T21:59:02.519Z,97706.50
2022-12-20T22:01:31.210Z,97703.75
2022-12-20T22:04:02.456Z,97706.38
2022-12-20T22:06:31.523Z,97702.72
2022-12-20T22:09:00.388Z,97707.03
2022-12-20T22:11:29.391Z,97706.06
2022-12-20T22:13:58.884Z,97707.75
2022-12-20T22:16:31.884Z,97705.13
2022-12-20T22:19:00.915Z,97713.53
2022-12-20T22:21:31.248Z,97724.88
2022-12-20T22:24:00.856Z,97737.03
2022-12-20T22:26:31.598Z,97746.56
2022-12-20T22:29:03.407Z,97729.91
2022-12-20T22:31:33.212Z,97721.06
2022-12-20T22:34:02.033Z,97732.41
2022-12-20T22:36:30.531Z,97734.09
2022-12-20T22:38:59.218Z,97746.25
2022-12-20T22:41:29.943Z,97755.91
2022-12-20T22:44:00.145Z,97757.69
2022-12-20T22:46:30.289Z,97744.56
2022-12-20T22:49:01.475Z,97742.06
2022-12-20T22:51:31.819Z,97743.72
2022-12-20T22:54:00.862Z,97755.91
2022-12-20T22:56:29.946Z,97767.22
2022-12-20T22:58:58.233Z,97747.09
2022-12-20T23:01:26.734Z,97748.06
2022-12-20T23:03:55.233Z,97755.06
2022-12-20T23:06:24.893Z,97762.94
2022-12-20T23:08:53.128Z,97780.44
2022-12-20T23:11:40.948Z,97760.31
2022-12-20T23:14:32.587Z,97765.75
2022-12-20T23:17:01.501Z,97753.59
2022-12-20T23:19:50.132Z,97747.50
2022-12-20T23:22:37.903Z,97733.66
2022-12-20T23:25:08.729Z,97747.63
2022-12-20T23:27:37.496Z,97730.91
2022-12-20T23:30:08.499Z,97725.69
2022-12-20T23:32:37.036Z,97720.53
2022-12-20T23:35:12.251Z,97724.75
2022-12-20T23:37:42.849Z,97750.13
2022-12-20T23:40:13.690Z,97746.66
2022-12-20T23:42:41.905Z,97751.91
2022-12-20T23:45:11.688Z,97753.59
2022-12-20T23:47:40.019Z,97776.16
2022-12-20T23:50:09.651Z,97780.53
2022-12-20T23:52:37.931Z,97752.66
2022-12-20T23:55:08.610Z,97739.53
2022-12-20T23:57:36.847Z,97732.53
